createdAt,value
2023-01-07T00:01:30.322Z,10.82
2023-01-07T00:03:58.270Z,14.30
2023-01-07T00:06:29.279Z,10.88
2023-01-07T00:08:57.454Z,12.82
2023-01-07T00:11:26.656Z,10.98
2023-01-07T00:13:55.065Z,11.75
2023-01-07T00:16:24.554Z,15.27
2023-01-07T00:18:52.808Z,10.38
2023-01-07T00:21:21.019Z,10.00
2023-01-07T00:23:48.591Z,12.13
2023-01-07T00:26:20.528Z,11.48
2023-01-07T00:28:50.268Z,15.55
2023-01-07T00:31:19.301Z,10.93
2023-01-07T00:33:51.979Z,11.63
2023-01-07T00:36:19.915Z,10.43
2023-01-07T00:38:47.247Z,9.98
2023-01-07T00:41:14.175Z,9.88
2023-01-07T00:43:40.812Z,9.68
2023-01-07T00:46:09.050Z,10.40
2023-01-07T00:48:35.780Z,10.27
2023-01-07T00:51:02.515Z,9.40
2023-01-07T00:53:32.718Z,9.80
2023-01-07T00:55:59.638Z,10.95
2023-01-07T00:58:26.454Z,8.77
2023-01-07T01:00:57.421Z,14.00
2023-01-07T01:03:24.808Z,11.10
2023-01-07T01:05:51.717Z,9.38
2023-01-07T01:08:18.901Z,10.55
2023-01-07T01:10:46.066Z,11.65
2023-01-07T01:13:16.734Z,8.70
2023-01-07T01:15:46.366Z,13.20
2023-01-07T01:18:13.651Z,9.05
2023-01-07T01:20:42.125Z,12.70
2023-01-07T01:23:09.106Z,11.48
2023-01-07T01:25:36.897Z,8.82
2023-01-07T01:28:03.689Z,10.68
2023-01-07T01:30:30.429Z,12.32
2023-01-07T01:32:57.151Z,10.60
2023-01-07T01:35:26.146Z,11.68
2023-01-07T01:37:55.228Z,9.32
2023-01-07T01:40:22.027Z,9.63
2023-01-07T01:42:48.671Z,9.10
2023-01-07T01:45:15.465Z,11.30
2023-01-07T01:47:56.587Z,10.68
2023-01-07T01:50:40.242Z,9.77
2023-01-07T01:53:09.842Z,14.20
2023-01-07T01:55:59.010Z,9.68
2023-01-07T01:58:48.306Z,12.23
2023-01-07T02:01:15.280Z,11.85
2023-01-07T02:03:42.291Z,11.00
2023-01-07T02:06:14.590Z,10.38
2023-01-07T02:08:42.512Z,11.70
2023-01-07T02:11:33.685Z,13.48
2023-01-07T02:14:26.827Z,11.10
2023-01-07T02:17:06.488Z,13.15
2023-01-07T02:19:51.785Z,10.43
2023-01-07T02:23:01.991Z,8.88
2023-01-07T02:25:52.788Z,9.30
2023-01-07T02:28:41.133Z,11.65
2023-01-07T02:31:13.861Z,12.60
2023-01-07T02:34:04.838Z,9.55
2023-01-07T02:36:37.932Z,10.13
2023-01-07T02:39:34.447Z,8.90
2023-01-07T02:42:13.089Z,9.15
2023-01-07T02:44:50.740Z,9.98
2023-01-07T02:47:22.321Z,10.18
2023-01-07T02:49:49.410Z,10.38
2023-01-07T02:52:20.792Z,12.15
2023-01-07T02:54:57.289Z,9.35
2023-01-07T02:57:33.330Z,9.70
2023-01-07T03:00:36.967Z,12.05
2023-01-07T03:03:22.031Z,9.45
2023-01-07T03:06:07.730Z,9.90
2023-01-07T03:08:43.497Z,10.38
2023-01-07T03:11:10.667Z,12.65
2023-01-07T03:13:38.440Z,9.65
2023-01-07T03:16:30.435Z,8.82
2023-01-07T03:19:01.233Z,8.55
2023-01-07T03:21:28.617Z,8.98
2023-01-07T03:23:56.980Z,8.85
2023-01-07T03:26:27.527Z,10.65
2023-01-07T03:28:54.463Z,12.43
2023-01-07T03:31:22.565Z,9.75
2023-01-07T03:34:08.530Z,8.50
2023-01-07T03:36:44.206Z,10.35
2023-01-07T03:39:12.655Z,10.23
2023-01-07T03:41:58.736Z,8.90
2023-01-07T03:44:25.610Z,13.85
2023-01-07T03:46:52.854Z,9.57
2023-01-07T03:49:19.604Z,12.23
2023-01-07T03:51:46.742Z,9.32
2023-01-07T03:54:13.752Z,13.18
2023-01-07T03:56:41.785Z,12.70
2023-01-07T03:59:08.545Z,16.45
2023-01-07T04:01:35.318Z,13.00
2023-01-07T04:04:03.481Z,13.65
2023-01-07T04:06:30.484Z,12.85
2023-01-07T04:08:57.261Z,14.02
2023-01-07T04:11:24.127Z,12.55
2023-01-07T04:13:50.925Z,17.52
2023-01-07T04:16:17.653Z,11.65
2023-01-07T04:18:44.412Z,14.05
2023-01-07T04:21:11.124Z,14.70
2023-01-07T04:23:37.778Z,15.43
2023-01-07T04:26:04.864Z,17.08
2023-01-07T04:28:31.539Z,10.23
2023-01-07T04:31:01.757Z,11.10
2023-01-07T04:33:28.503Z,11.38
2023-01-07T04:35:55.327Z,17.08
2023-01-07T04:38:22.080Z,20.20
2023-01-07T04:40:48.771Z,12.35
2023-01-07T04:43:15.602Z,14.10
2023-01-07T04:45:42.352Z,13.15
2023-01-07T04:48:09.180Z,17.23
2023-01-07T04:50:35.881Z,22.42
2023-01-07T04:53:02.616Z,16.52
2023-01-07T04:55:29.769Z,24.90
2023-01-07T04:57:56.488Z,22.30
2023-01-07T05:00:23.291Z,18.80
2023-01-07T05:02:50.592Z,19.63
2023-01-07T05:05:17.336Z,39.83
2023-01-07T05:07:44.077Z,28.13
2023-01-07T05:10:11.232Z,38.42
2023-01-07T05:12:38.160Z,60.40
2023-01-07T05:15:05.792Z,64.97
2023-01-07T05:17:32.635Z,64.43
2023-01-07T05:19:59.286Z,71.63
2023-01-07T05:22:26.435Z,55.80
2023-01-07T05:24:53.067Z,54.10
2023-01-07T05:27:20.302Z,52.90
2023-01-07T05:29:46.975Z,56.65
2023-01-07T05:32:13.734Z,49.47
2023-01-07T05:34:40.891Z,46.13
2023-01-07T05:37:07.548Z,46.53
2023-01-07T05:39:34.477Z,45.50
2023-01-07T05:42:01.756Z,35.40
2023-01-07T05:44:28.442Z,36.13
2023-01-07T05:46:55.104Z,39.15
2023-01-07T05:49:21.957Z,40.40
2023-01-07T05:51:48.651Z,40.40
2023-01-07T05:54:15.341Z,39.75
2023-01-07T05:56:42.013Z,40.55
2023-01-07T05:59:08.663Z,29.60
2023-01-07T06:01:35.401Z,32.40
2023-01-07T06:04:03.353Z,29.88
2023-01-07T06:06:30.052Z,24.35
2023-01-07T06:08:57.137Z,30.63
2023-01-07T06:11:24.337Z,34.58
2023-01-07T06:13:51.065Z,37.58
2023-01-07T06:16:17.763Z,42.90
2023-01-07T06:18:44.699Z,42.72
2023-01-07T06:21:11.389Z,45.88
2023-01-07T06:23:38.349Z,42.00
2023-01-07T06:26:05.229Z,42.72
2023-01-07T06:28:32.026Z,98.28
2023-01-07T06:30:59.057Z,76.45
2023-01-07T06:33:28.714Z,73.25
2023-01-07T06:35:55.395Z,83.97
2023-01-07T06:38:22.058Z,45.78
2023-01-07T06:40:48.774Z,50.05
2023-01-07T06:43:16.503Z,51.20
2023-01-07T06:45:43.236Z,52.20
2023-01-07T06:48:09.933Z,54.10
2023-01-07T06:50:36.621Z,69.82
2023-01-07T06:53:03.304Z,57.25
2023-01-07T06:55:29.944Z,54.10
2023-01-07T06:57:58.926Z,50.25
2023-01-07T07:00:25.602Z,58.92
2023-01-07T07:02:53.657Z,58.33
2023-01-07T07:05:20.482Z,51.03
2023-01-07T07:07:47.161Z,49.33
2023-01-07T07:10:14.128Z,47.83
2023-01-07T07:12:42.152Z,51.25
2023-01-07T07:15:09.769Z,52.53
2023-01-07T07:17:36.507Z,53.00
2023-01-07T07:20:03.773Z,52.60
2023-01-07T07:22:30.434Z,51.42
2023-01-07T07:24:57.133Z,51.63
2023-01-07T07:27:23.791Z,54.83
2023-01-07T07:29:50.442Z,48.45
2023-01-07T07:32:17.117Z,52.50
2023-01-07T07:34:43.874Z,42.65
2023-01-07T07:37:10.526Z,50.38
2023-01-07T07:39:37.631Z,42.40
2023-01-07T07:42:05.744Z,45.72
2023-01-07T07:44:32.511Z,46.55
2023-01-07T07:46:59.228Z,45.33
2023-01-07T07:49:26.003Z,55.83
2023-01-07T07:51:52.687Z,62.10
2023-01-07T07:54:19.425Z,59.13
2023-01-07T07:56:46.120Z,59.90
2023-01-07T07:59:12.784Z,65.25
2023-01-07T08:01:39.762Z,54.83
2023-01-07T08:04:06.541Z,55.05
2023-01-07T08:06:34.339Z,45.95
2023-01-07T08:09:01.337Z,44.45
2023-01-07T08:11:28.045Z,47.97
2023-01-07T08:13:54.935Z,37.83
2023-01-07T08:16:21.703Z,33.00
2023-01-07T08:18:48.430Z,21.38
2023-01-07T08:21:15.143Z,19.30
2023-01-07T08:23:41.865Z,24.70
2023-01-07T08:26:08.518Z,29.33
2023-01-07T08:28:35.181Z,21.92
2023-01-07T08:31:04.059Z,18.50
2023-01-07T08:33:31.494Z,18.02
2023-01-07T08:35:58.135Z,19.98
2023-01-07T08:38:27.456Z,20.77
2023-01-07T08:40:54.640Z,17.50
2023-01-07T08:43:24.493Z,13.57
2023-01-07T08:45:51.843Z,18.70
2023-01-07T08:48:19.270Z,16.33
2023-01-07T08:50:50.614Z,19.20
2023-01-07T08:53:17.304Z,19.50
2023-01-07T08:55:43.934Z,13.88
2023-01-07T08:58:10.633Z,15.20
2023-01-07T09:00:37.372Z,33.00
2023-01-07T09:03:04.593Z,18.77
2023-01-07T09:05:32.584Z,18.02
2023-01-07T09:08:02.983Z,18.17
2023-01-07T09:10:29.945Z,26.83
2023-01-07T09:12:56.684Z,18.25
2023-01-07T09:15:23.409Z,11.27
2023-01-07T09:17:50.099Z,11.63
2023-01-07T09:20:16.978Z,8.85
2023-01-07T09:22:43.848Z,16.50
2023-01-07T09:25:10.622Z,13.45
2023-01-07T09:27:38.060Z,13.98
2023-01-07T09:30:06.337Z,14.18
2023-01-07T09:32:35.342Z,11.60
2023-01-07T09:35:02.092Z,15.85
2023-01-07T09:37:28.743Z,11.68
2023-01-07T09:39:55.458Z,15.82
2023-01-07T09:42:42.653Z,14.23
2023-01-07T09:45:14.203Z,12.07
2023-01-07T09:47:44.303Z,13.88
2023-01-07T09:50:27.774Z,9.40
2023-01-07T09:52:57.318Z,18.63
2023-01-07T09:55:38.212Z,15.30
2023-01-07T09:58:24.901Z,12.30
2023-01-07T10:01:29.276Z,10.88
2023-01-07T10:04:17.257Z,10.55
2023-01-07T10:06:53.800Z,12.30
2023-01-07T10:09:43.548Z,13.38
2023-01-07T10:12:17.929Z,10.57
2023-01-07T10:15:06.647Z,11.75
2023-01-07T10:17:39.481Z,15.75
2023-01-07T10:20:21.384Z,13.32
2023-01-07T10:23:08.492Z,24.67
2023-01-07T10:25:56.971Z,16.70
2023-01-07T10:28:38.980Z,11.52
2023-01-07T10:31:07.472Z,15.02
2023-01-07T10:33:34.234Z,12.80
2023-01-07T10:36:19.666Z,17.70
2023-01-07T10:38:56.454Z,15.25
2023-01-07T10:41:30.380Z,20.75
2023-01-07T10:44:04.589Z,18.73
2023-01-07T10:46:49.074Z,23.40
2023-01-07T10:49:47.613Z,16.38
2023-01-07T10:52:39.324Z,13.93
2023-01-07T10:55:57.251Z,14.30
2023-01-07T10:58:24.669Z,14.15
2023-01-07T11:00:51.439Z,15.52
2023-01-07T11:03:23.592Z,26.92
2023-01-07T11:06:02.168Z,22.42
2023-01-07T11:08:38.583Z,16.88
2023-01-07T11:11:06.073Z,17.58
2023-01-07T11:13:35.678Z,14.55
2023-01-07T11:16:09.066Z,16.52
2023-01-07T11:18:58.659Z,14.23
2023-01-07T11:21:43.822Z,15.40
2023-01-07T11:24:34.243Z,17.02
2023-01-07T11:27:14.133Z,15.48
2023-01-07T11:29:46.013Z,15.07
2023-01-07T11:32:28.152Z,15.55
2023-01-07T11:35:02.384Z,16.17
2023-01-07T11:37:39.285Z,17.95
2023-01-07T11:40:21.834Z,17.52
2023-01-07T11:42:57.335Z,14.77
2023-01-07T11:45:28.213Z,17.45
2023-01-07T11:48:22.753Z,14.80
2023-01-07T11:51:02.324Z,16.05
2023-01-07T11:53:33.242Z,12.88
2023-01-07T11:56:03.092Z,17.08
2023-01-07T11:58:36.420Z,16.77
2023-01-07T12:01:09.231Z,12.30
2023-01-07T12:03:37.659Z,14.05
2023-01-07T12:06:08.969Z,13.50
2023-01-07T12:08:35.774Z,14.30
2023-01-07T12:11:10.285Z,19.17
2023-01-07T12:13:40.665Z,17.00
2023-01-07T12:16:09.203Z,12.50
2023-01-07T12:18:54.588Z,14.63
2023-01-07T12:21:45.274Z,14.85
2023-01-07T12:24:28.678Z,15.65
2023-01-07T12:27:02.981Z,13.57
2023-01-07T12:29:36.455Z,15.20
2023-01-07T12:32:15.644Z,15.93
2023-01-07T12:34:49.771Z,15.80
2023-01-07T12:37:28.581Z,14.88
2023-01-07T12:40:03.324Z,14.18
2023-01-07T12:42:35.180Z,18.52
2023-01-07T12:45:05.964Z,16.42
2023-01-07T12:47:40.309Z,19.42
2023-01-07T12:50:10.793Z,13.10
2023-01-07T12:52:48.925Z,14.73
2023-01-07T12:55:37.195Z,13.82
2023-01-07T12:58:28.888Z,15.00
2023-01-07T13:01:18.867Z,13.57
2023-01-07T13:04:13.793Z,18.08
2023-01-07T13:06:53.719Z,14.45
2023-01-07T13:09:38.740Z,18.83
2023-01-07T13:12:40.620Z,19.40
2023-01-07T13:15:14.984Z,15.05
2023-01-07T13:17:41.730Z,17.90
2023-01-07T13:20:13.340Z,16.55
2023-01-07T13:22:51.720Z,14.32
2023-01-07T13:25:39.996Z,12.10
2023-01-07T13:28:20.572Z,11.90
2023-01-07T13:30:59.760Z,11.73
2023-01-07T13:33:38.610Z,18.80
2023-01-07T13:36:26.017Z,16.23
2023-01-07T13:39:31.351Z,15.35
2023-01-07T13:42:01.112Z,15.00
2023-01-07T13:44:52.054Z,9.77
2023-01-07T13:47:21.237Z,11.88
2023-01-07T13:52:25.886Z,12.85
2023-01-07T13:54:57.704Z,11.45
2023-01-07T13:57:24.335Z,11.32
2023-01-07T13:59:53.642Z,7.68
2023-01-07T14:02:23.911Z,21.85
2023-01-07T14:05:09.230Z,19.20
2023-01-07T14:07:50.883Z,12.55
2023-01-07T14:10:37.688Z,17.73
2023-01-07T14:13:12.222Z,10.48
2023-01-07T14:16:04.995Z,14.73
2023-01-07T14:18:31.629Z,11.52
2023-01-07T14:21:18.945Z,19.85
2023-01-07T14:24:04.204Z,13.95
2023-01-07T14:26:41.952Z,11.35
2023-01-07T14:29:14.603Z,8.23
2023-01-07T14:31:41.456Z,9.85
2023-01-07T14:34:21.336Z,11.93
2023-01-07T14:37:06.503Z,10.32
2023-01-07T14:39:40.251Z,12.18
2023-01-07T14:42:19.019Z,16.38
2023-01-07T14:44:51.156Z,12.05
2023-01-07T14:47:45.962Z,13.73
2023-01-07T14:50:36.004Z,22.88
2023-01-07T14:53:40.058Z,15.63
2023-01-07T14:56:31.839Z,9.82
2023-01-07T14:59:11.215Z,11.82
2023-01-07T15:02:15.834Z,12.85
2023-01-07T15:05:07.125Z,11.38
2023-01-07T15:07:36.749Z,13.02
2023-01-07T15:10:36.153Z,13.68
2023-01-07T15:13:23.387Z,15.38
2023-01-07T15:16:03.651Z,10.55
2023-01-07T15:18:33.025Z,16.48
2023-01-07T15:23:57.888Z,20.23
2023-01-07T15:27:02.122Z,26.08
2023-01-07T15:29:42.538Z,38.72
2023-01-07T15:32:11.803Z,23.75
2023-01-07T15:37:05.948Z,42.15
2023-01-07T15:39:34.081Z,62.17
2023-01-07T15:42:01.385Z,82.40
2023-01-07T15:44:40.700Z,28.55
2023-01-07T15:47:32.803Z,35.95
2023-01-07T15:50:19.412Z,38.42
2023-01-07T15:52:54.801Z,34.03
2023-01-07T15:55:24.477Z,44.50
2023-01-07T15:57:53.548Z,44.38
2023-01-07T16:00:21.357Z,33.90
2023-01-07T16:02:48.149Z,47.30
2023-01-07T16:05:17.561Z,45.13
2023-01-07T16:07:59.600Z,38.85
2023-01-07T16:10:35.824Z,50.40
2023-01-07T16:13:05.409Z,36.20
2023-01-07T16:15:34.698Z,38.63
2023-01-07T16:20:34.164Z,24.27
2023-01-07T16:23:10.951Z,40.33
2023-01-07T16:25:44.393Z,37.85
2023-01-07T16:28:17.340Z,43.28
2023-01-07T16:30:44.690Z,38.65
2023-01-07T16:33:20.645Z,30.42
2023-01-07T16:35:48.606Z,35.38
2023-01-07T16:38:17.474Z,35.25
2023-01-07T16:40:45.510Z,53.03
2023-01-07T16:43:45.509Z,61.53
2023-01-07T16:46:17.527Z,44.97
2023-01-07T16:48:46.258Z,43.85
2023-01-07T16:51:36.835Z,44.47
2023-01-07T16:54:23.413Z,54.80
2023-01-07T16:56:54.315Z,52.63
2023-01-07T16:59:22.985Z,43.58
2023-01-07T17:01:49.865Z,45.80
2023-01-07T17:04:19.981Z,43.83
2023-01-07T17:06:46.775Z,37.70
2023-01-07T17:09:21.168Z,45.65
2023-01-07T17:11:53.008Z,44.95
2023-01-07T17:14:35.153Z,43.63
2023-01-07T17:17:02.780Z,45.90
2023-01-07T17:19:58.366Z,48.90
2023-01-07T17:22:32.522Z,47.20
2023-01-07T17:25:15.761Z,41.50
2023-01-07T17:27:54.996Z,53.00
2023-01-07T17:30:22.267Z,53.35
2023-01-07T17:32:53.212Z,40.97
2023-01-07T17:35:22.004Z,33.08
2023-01-07T17:37:49.316Z,33.35
2023-01-07T17:40:17.231Z,37.83
2023-01-07T17:43:04.112Z,35.92
2023-01-07T17:45:30.926Z,33.88
2023-01-07T17:47:59.464Z,44.45
2023-01-07T17:50:29.804Z,39.60
2023-01-07T17:52:56.825Z,46.75
2023-01-07T17:55:30.816Z,41.78
2023-01-07T17:57:58.195Z,31.17
2023-01-07T18:00:27.145Z,24.33
2023-01-07T18:02:54.130Z,28.73
2023-01-07T18:05:23.012Z,39.70
2023-01-07T18:07:52.096Z,38.10
2023-01-07T18:10:21.027Z,37.20
2023-01-07T18:12:48.133Z,37.60
2023-01-07T18:15:28.005Z,42.38
2023-01-07T18:17:54.717Z,35.72
2023-01-07T18:20:22.611Z,37.55
2023-01-07T18:22:49.757Z,44.17
2023-01-07T18:25:21.604Z,57.55
2023-01-07T18:27:53.619Z,57.70
2023-01-07T18:30:22.127Z,47.38
2023-01-07T18:32:51.352Z,42.55
2023-01-07T18:35:19.269Z,28.83
2023-01-07T18:37:50.278Z,32.38
2023-01-07T18:40:17.435Z,32.10
2023-01-07T18:42:44.151Z,29.40
2023-01-07T18:45:11.279Z,26.02
2023-01-07T18:47:39.289Z,29.35
2023-01-07T18:50:06.566Z,29.00
2023-01-07T18:52:34.476Z,31.13
2023-01-07T18:55:02.216Z,32.33
2023-01-07T18:57:28.892Z,37.53
2023-01-07T18:59:55.572Z,52.88
2023-01-07T19:02:22.329Z,38.05
2023-01-07T19:04:49.604Z,33.75
2023-01-07T19:07:17.538Z,31.25
2023-01-07T19:09:44.927Z,32.72
2023-01-07T19:12:12.322Z,39.50
2023-01-07T19:14:39.937Z,32.05
2023-01-07T19:17:07.831Z,39.33
2023-01-07T19:19:47.382Z,37.03
2023-01-07T19:22:16.177Z,52.70
2023-01-07T19:24:44.501Z,58.38
2023-01-07T19:27:11.437Z,52.05
2023-01-07T19:29:38.108Z,39.55
2023-01-07T19:32:05.127Z,43.75
2023-01-07T19:34:31.822Z,49.67
2023-01-07T19:36:58.466Z,38.67
2023-01-07T19:39:25.252Z,38.40
2023-01-07T19:41:52.505Z,38.75
2023-01-07T19:44:19.859Z,38.13
2023-01-07T19:46:46.504Z,49.35
2023-01-07T19:49:13.657Z,52.83
2023-01-07T19:51:41.925Z,43.20
2023-01-07T19:54:11.928Z,46.42
2023-01-07T19:56:40.284Z,42.65
2023-01-07T19:59:06.961Z,52.03
2023-01-07T20:01:33.983Z,60.50
2023-01-07T20:04:01.204Z,98.75
2023-01-07T20:06:29.975Z,83.97
2023-01-07T20:08:58.214Z,97.80
2023-01-07T20:11:25.442Z,112.43
2023-01-07T20:13:52.288Z,103.63
2023-01-07T20:16:24.281Z,111.68
2023-01-07T20:18:52.731Z,106.18
2023-01-07T20:21:21.633Z,105.10
2023-01-07T20:23:48.852Z,116.38
2023-01-07T20:26:21.943Z,108.88
2023-01-07T20:28:49.401Z,95.13
2023-01-07T20:31:17.981Z,115.85
2023-01-07T20:33:45.489Z,106.28
2023-01-07T20:36:17.420Z,90.07
2023-01-07T20:38:44.815Z,85.80
2023-01-07T20:41:14.313Z,86.80
2023-01-07T20:43:41.251Z,84.45
2023-01-07T20:46:08.502Z,79.63
2023-01-07T20:48:36.223Z,85.28
2023-01-07T20:51:07.282Z,94.55
2023-01-07T20:53:34.190Z,67.55
2023-01-07T20:56:01.684Z,51.10
2023-01-07T20:58:31.193Z,42.60
2023-01-07T21:00:58.013Z,46.65
2023-01-07T21:03:26.206Z,40.47
2023-01-07T21:05:57.195Z,41.97
2023-01-07T21:08:24.520Z,52.55
2023-01-07T21:10:51.979Z,58.22
2023-01-07T21:13:20.396Z,47.00
2023-01-07T21:15:47.085Z,50.20
2023-01-07T21:18:13.832Z,51.58
2023-01-07T21:20:41.043Z,57.00
2023-01-07T21:23:07.731Z,57.00
2023-01-07T21:25:34.435Z,60.78
2023-01-07T21:28:02.151Z,74.25
2023-01-07T21:30:29.481Z,67.25
2023-01-07T21:32:56.302Z,57.92
2023-01-07T21:35:23.054Z,106.03
2023-01-07T21:37:52.917Z,255.75
2023-01-07T21:40:19.867Z,346.52
2023-01-07T21:42:46.573Z,63.83
2023-01-07T21:45:13.304Z,44.25
2023-01-07T21:47:40.082Z,47.65
2023-01-07T21:50:07.254Z,75.57
2023-01-07T21:52:35.311Z,72.85
2023-01-07T21:55:02.688Z,66.13
2023-01-07T21:57:29.370Z,60.42
2023-01-07T21:59:56.068Z,54.75
2023-01-07T22:02:22.984Z,66.28
2023-01-07T22:04:50.439Z,65.30
2023-01-07T22:07:18.587Z,69.13
2023-01-07T22:09:45.564Z,74.40
2023-01-07T22:12:14.036Z,64.25
2023-01-07T22:14:41.274Z,76.47
2023-01-07T22:17:08.370Z,74.18
2023-01-07T22:19:35.015Z,100.05
2023-01-07T22:22:01.843Z,68.72
2023-01-07T22:24:28.672Z,63.75
2023-01-07T22:26:55.469Z,74.43
2023-01-07T22:29:22.253Z,63.70
2023-01-07T22:31:51.084Z,78.57
2023-01-07T22:34:17.894Z,63.03
2023-01-07T22:37:02.601Z,55.25
2023-01-07T22:39:38.187Z,51.90
2023-01-07T22:44:49.613Z,52.70
2023-01-07T22:47:18.678Z,51.97
2023-01-07T22:49:45.602Z,56.20
2023-01-07T22:52:12.621Z,47.83
2023-01-07T22:54:39.893Z,51.70
2023-01-07T22:57:08.764Z,53.47
2023-01-07T22:59:35.834Z,46.55
2023-01-07T23:02:02.632Z,50.15
2023-01-07T23:04:29.724Z,42.83
2023-01-07T23:06:56.467Z,44.40
2023-01-07T23:09:23.118Z,46.03
2023-01-07T23:11:50.751Z,47.10
2023-01-07T23:14:21.946Z,49.92
2023-01-07T23:16:49.012Z,46.05
2023-01-07T23:19:16.685Z,40.60
2023-01-07T23:21:45.838Z,44.83
2023-01-07T23:24:13.379Z,43.35
2023-01-07T23:26:40.347Z,46.28
2023-01-07T23:29:07.566Z,49.85
2023-01-07T23:31:35.450Z,49.75
2023-01-07T23:34:03.786Z,46.13
2023-01-07T23:36:30.616Z,50.47
2023-01-07T23:38:57.360Z,40.20
2023-01-07T23:41:24.541Z,46.70
2023-01-07T23:43:51.354Z,48.88
2023-01-07T23:46:20.686Z,54.25
2023-01-07T23:48:47.413Z,51.55
2023-01-07T23:51:17.017Z,41.70
2023-01-07T23:53:44.235Z,46.58
2023-01-07T23:56:11.003Z,48.13
2023-01-07T23:58:38.200Z,39.10
